sensor_id;sensor_type;location;lat;lon;timestamp;pressure;altitude;pressure_sealevel;temperature
81319;BMP280;74078;48.420;14.828;2024-03-06T00:01:35;92370.94;;;4.90
81319;BMP280;74078;48.420;14.828;2024-03-06T00:04:01;92370.34;;;4.98
81319;BMP280;74078;48.420;14.828;2024-03-06T00:06:26;92374.44;;;4.92
81319;BMP280;74078;48.420;14.828;2024-03-06T00:08:52;92375.38;;;4.82
81319;BMP280;74078;48.420;14.828;2024-03-06T00:11:17;92377.88;;;4.66
81319;BMP280;74078;48.420;14.828;2024-03-06T00:13:42;92380.63;;;4.72
81319;BMP280;74078;48.420;14.828;2024-03-06T00:16:08;92378.19;;;4.68
81319;BMP280;74078;48.420;14.828;2024-03-06T00:18:33;92378.78;;;4.72
81319;BMP280;74078;48.420;14.828;2024-03-06T00:20:58;92376.44;;;4.65
81319;BMP280;74078;48.420;14.828;2024-03-06T00:23:24;92382.91;;;4.66
81319;BMP280;74078;48.420;14.828;2024-03-06T00:25:49;92380.72;;;4.48
81319;BMP280;74078;48.420;14.828;2024-03-06T00:28:14;92386.28;;;4.40
81319;BMP280;74078;48.420;14.828;2024-03-06T00:30:39;92385.06;;;4.28
81319;BMP280;74078;48.420;14.828;2024-03-06T00:33:04;92388.63;;;4.31
81319;BMP280;74078;48.420;14.828;2024-03-06T00:35:30;92386.88;;;4.28
81319;BMP280;74078;48.420;14.828;2024-03-06T00:37:55;92391.97;;;4.24
81319;BMP280;74078;48.420;14.828;2024-03-06T00:40:20;92394.47;;;4.24
81319;BMP280;74078;48.420;14.828;2024-03-06T00:42:45;92399.44;;;4.28
81319;BMP280;74078;48.420;14.828;2024-03-06T00:45:11;92393.44;;;4.22
81319;BMP280;74078;48.420;14.828;2024-03-06T00:47:36;92394.03;;;4.29
81319;BMP280;74078;48.420;14.828;2024-03-06T00:50:02;92397.97;;;4.30
81319;BMP280;74078;48.420;14.828;2024-03-06T00:52:27;92406.47;;;4.17
81319;BMP280;74078;48.420;14.828;2024-03-06T00:54:52;92400.19;;;4.25
81319;BMP280;74078;48.420;14.828;2024-03-06T00:57:18;92396.47;;;4.33
81319;BMP280;74078;48.420;14.828;2024-03-06T00:59:43;92404.53;;;4.24
81319;BMP280;74078;48.420;14.828;2024-03-06T01:02:08;92403.44;;;4.25
81319;BMP280;74078;48.420;14.828;2024-03-06T01:04:33;92401.84;;;4.35
81319;BMP280;74078;48.420;14.828;2024-03-06T01:06:58;92404.78;;;4.30
81319;BMP280;74078;48.420;14.828;2024-03-06T01:09:24;92392.72;;;4.41
81319;BMP280;74078;48.420;14.828;2024-03-06T01:11:49;92403.13;;;4.43
81319;BMP280;74078;48.420;14.828;2024-03-06T01:14:15;92400.00;;;4.55
81319;BMP280;74078;48.420;14.828;2024-03-06T01:16:41;92401.09;;;4.54
81319;BMP280;74078;48.420;14.828;2024-03-06T01:19:06;92408.88;;;4.43
81319;BMP280;74078;48.420;14.828;2024-03-06T01:21:32;92410.47;;;4.53
81319;BMP280;74078;48.420;14.828;2024-03-06T01:23:59;92414.88;;;4.49
81319;BMP280;74078;48.420;14.828;2024-03-06T01:26:24;92420.47;;;4.57
81319;BMP280;74078;48.420;14.828;2024-03-06T01:28:49;92417.63;;;4.55
81319;BMP280;74078;48.420;14.828;2024-03-06T01:31:15;92428.22;;;4.66
81319;BMP280;74078;48.420;14.828;2024-03-06T01:33:40;92420.06;;;4.78
81319;BMP280;74078;48.420;14.828;2024-03-06T01:36:05;92423.16;;;4.86
81319;BMP280;74078;48.420;14.828;2024-03-06T01:38:30;92424.06;;;4.56
81319;BMP280;74078;48.420;14.828;2024-03-06T01:40:56;92426.13;;;4.61
81319;BMP280;74078;48.420;14.828;2024-03-06T01:43:22;92421.44;;;4.63
81319;BMP280;74078;48.420;14.828;2024-03-06T01:45:48;92419.84;;;4.53
81319;BMP280;74078;48.420;14.828;2024-03-06T01:48:13;92423.75;;;4.54
81319;BMP280;74078;48.420;14.828;2024-03-06T01:50:39;92417.38;;;4.69
81319;BMP280;74078;48.420;14.828;2024-03-06T01:53:04;92416.72;;;4.65
81319;BMP280;74078;48.420;14.828;2024-03-06T01:55:30;92415.28;;;4.64
81319;BMP280;74078;48.420;14.828;2024-03-06T01:57:55;92418.81;;;4.70
81319;BMP280;74078;48.420;14.828;2024-03-06T02:00:21;92411.41;;;4.79
81319;BMP280;74078;48.420;14.828;2024-03-06T02:02:47;92414.25;;;4.81
81319;BMP280;74078;48.420;14.828;2024-03-06T02:05:13;92403.47;;;4.81
81319;BMP280;74078;48.420;14.828;2024-03-06T02:07:38;92412.19;;;4.76
81319;BMP280;74078;48.420;14.828;2024-03-06T02:10:06;92410.84;;;4.72
81319;BMP280;74078;48.420;14.828;2024-03-06T02:12:31;92413.06;;;4.70
81319;BMP280;74078;48.420;14.828;2024-03-06T02:14:58;92419.56;;;4.67
81319;BMP280;74078;48.420;14.828;2024-03-06T02:17:23;92406.75;;;4.78
81319;BMP280;74078;48.420;14.828;2024-03-06T02:19:50;92403.78;;;4.83
81319;BMP280;74078;48.420;14.828;2024-03-06T02:22:15;92406.50;;;4.72
81319;BMP280;74078;48.420;14.828;2024-03-06T02:24:44;92399.22;;;4.58
81319;BMP280;74078;48.420;14.828;2024-03-06T02:27:10;92401.31;;;4.63
81319;BMP280;74078;48.420;14.828;2024-03-06T02:29:35;92408.38;;;4.68
81319;BMP280;74078;48.420;14.828;2024-03-06T02:32:00;92401.31;;;4.63
81319;BMP280;74078;48.420;14.828;2024-03-06T02:34:28;92407.97;;;4.53
81319;BMP280;74078;48.420;14.828;2024-03-06T02:36:55;92400.19;;;4.64
81319;BMP280;74078;48.420;14.828;2024-03-06T02:39:20;92402.34;;;4.66
81319;BMP280;74078;48.420;14.828;2024-03-06T02:41:46;92401.19;;;4.50
81319;BMP280;74078;48.420;14.828;2024-03-06T02:44:11;92403.06;;;4.46
81319;BMP280;74078;48.420;14.828;2024-03-06T02:46:36;92396.22;;;4.47
81319;BMP280;74078;48.420;14.828;2024-03-06T02:49:02;92404.25;;;4.58
81319;BMP280;74078;48.420;14.828;2024-03-06T02:51:27;92400.78;;;4.52
81319;BMP280;74078;48.420;14.828;2024-03-06T02:53:52;92402.13;;;4.37
81319;BMP280;74078;48.420;14.828;2024-03-06T02:56:18;92397.03;;;4.40
81319;BMP280;74078;48.420;14.828;2024-03-06T02:58:44;92400.72;;;4.36
81319;BMP280;74078;48.420;14.828;2024-03-06T03:01:10;92390.66;;;4.36
81319;BMP280;74078;48.420;14.828;2024-03-06T03:03:36;92393.88;;;4.36
81319;BMP280;74078;48.420;14.828;2024-03-06T03:06:02;92398.09;;;4.43
81319;BMP280;74078;48.420;14.828;2024-03-06T03:08:28;92398.75;;;4.47
81319;BMP280;74078;48.420;14.828;2024-03-06T03:10:54;92401.19;;;4.31
81319;BMP280;74078;48.420;14.828;2024-03-06T03:13:20;92397.44;;;4.39
81319;BMP280;74078;48.420;14.828;2024-03-06T03:15:47;92399.19;;;4.42
81319;BMP280;74078;48.420;14.828;2024-03-06T03:18:13;92389.41;;;4.44
81319;BMP280;74078;48.420;14.828;2024-03-06T03:20:40;92393.59;;;4.34
81319;BMP280;74078;48.420;14.828;2024-03-06T03:23:06;92403.00;;;4.30
81319;BMP280;74078;48.420;14.828;2024-03-06T03:25:37;92398.13;;;4.20
81319;BMP280;74078;48.420;14.828;2024-03-06T03:28:04;92392.47;;;4.16
81319;BMP280;74078;48.420;14.828;2024-03-06T03:30:30;92396.06;;;4.15
81319;BMP280;74078;48.420;14.828;2024-03-06T03:32:57;92396.97;;;4.05
81319;BMP280;74078;48.420;14.828;2024-03-06T03:35:24;92399.69;;;4.14
81319;BMP280;74078;48.420;14.828;2024-03-06T03:37:51;92401.75;;;4.19
81319;BMP280;74078;48.420;14.828;2024-03-06T03:40:18;92401.09;;;4.15
81319;BMP280;74078;48.420;14.828;2024-03-06T03:42:45;92398.91;;;4.17
81319;BMP280;74078;48.420;14.828;2024-03-06T03:45:11;92402.84;;;4.18
81319;BMP280;74078;48.420;14.828;2024-03-06T03:47:38;92401.63;;;4.26
81319;BMP280;74078;48.420;14.828;2024-03-06T03:50:04;92401.56;;;4.10
81319;BMP280;74078;48.420;14.828;2024-03-06T03:52:31;92404.19;;;4.02
81319;BMP280;74078;48.420;14.828;2024-03-06T03:54:58;92406.44;;;3.97
81319;BMP280;74078;48.420;14.828;2024-03-06T03:57:24;92403.75;;;4.08
81319;BMP280;74078;48.420;14.828;2024-03-06T03:59:51;92399.38;;;4.12
81319;BMP280;74078;48.420;14.828;2024-03-06T04:02:17;92403.06;;;4.27
81319;BMP280;74078;48.420;14.828;2024-03-06T04:04:44;92404.56;;;4.21
81319;BMP280;74078;48.420;14.828;2024-03-06T04:07:10;92401.56;;;4.10
81319;BMP280;74078;48.420;14.828;2024-03-06T04:09:36;92400.63;;;4.00
81319;BMP280;74078;48.420;14.828;2024-03-06T04:12:04;92395.75;;;3.93
81319;BMP280;74078;48.420;14.828;2024-03-06T04:14:31;92403.22;;;3.96
81319;BMP280;74078;48.420;14.828;2024-03-06T04:17:03;92411.47;;;3.97
81319;BMP280;74078;48.420;14.828;2024-03-06T04:19:29;92408.44;;;4.06
81319;BMP280;74078;48.420;14.828;2024-03-06T04:21:57;92405.72;;;3.96
81319;BMP280;74078;48.420;14.828;2024-03-06T04:24:23;92413.47;;;4.06
81319;BMP280;74078;48.420;14.828;2024-03-06T04:26:49;92410.91;;;3.89
81319;BMP280;74078;48.420;14.828;2024-03-06T04:29:16;92409.94;;;4.03
81319;BMP280;74078;48.420;14.828;2024-03-06T04:31:43;92407.09;;;4.01
81319;BMP280;74078;48.420;14.828;2024-03-06T04:34:09;92411.28;;;4.08
81319;BMP280;74078;48.420;14.828;2024-03-06T04:36:35;92402.22;;;3.90
81319;BMP280;74078;48.420;14.828;2024-03-06T04:39:02;92413.06;;;3.87
81319;BMP280;74078;48.420;14.828;2024-03-06T04:41:33;92415.78;;;3.96
81319;BMP280;74078;48.420;14.828;2024-03-06T04:43:59;92412.56;;;3.96
81319;BMP280;74078;48.420;14.828;2024-03-06T04:46:26;92417.84;;;4.01
81319;BMP280;74078;48.420;14.828;2024-03-06T04:48:56;92426.59;;;3.93
81319;BMP280;74078;48.420;14.828;2024-03-06T04:51:22;92426.03;;;4.06
81319;BMP280;74078;48.420;14.828;2024-03-06T04:53:49;92424.19;;;4.10
81319;BMP280;74078;48.420;14.828;2024-03-06T04:56:15;92418.84;;;4.08
81319;BMP280;74078;48.420;14.828;2024-03-06T04:58:44;92424.41;;;3.95
81319;BMP280;74078;48.420;14.828;2024-03-06T05:01:14;92413.63;;;3.95
81319;BMP280;74078;48.420;14.828;2024-03-06T05:03:40;92417.31;;;3.90
81319;BMP280;74078;48.420;14.828;2024-03-06T05:06:06;92419.06;;;3.93
81319;BMP280;74078;48.420;14.828;2024-03-06T05:08:33;92420.19;;;3.92
81319;BMP280;74078;48.420;14.828;2024-03-06T05:11:00;92421.53;;;3.97
81319;BMP280;74078;48.420;14.828;2024-03-06T05:13:27;92427.91;;;4.01
81319;BMP280;74078;48.420;14.828;2024-03-06T05:15:54;92424.69;;;4.01
81319;BMP280;74078;48.420;14.828;2024-03-06T05:18:29;92429.34;;;4.02
81319;BMP280;74078;48.420;14.828;2024-03-06T05:20:56;92425.78;;;4.00
81319;BMP280;74078;48.420;14.828;2024-03-06T05:23:22;92432.63;;;3.99
81319;BMP280;74078;48.420;14.828;2024-03-06T05:25:48;92424.41;;;3.95
81319;BMP280;74078;48.420;14.828;2024-03-06T05:28:15;92432.63;;;3.99
81319;BMP280;74078;48.420;14.828;2024-03-06T05:30:41;92437.75;;;4.16
81319;BMP280;74078;48.420;14.828;2024-03-06T05:33:08;92427.81;;;4.09
81319;BMP280;74078;48.420;14.828;2024-03-06T05:35:38;92422.56;;;3.99
81319;BMP280;74078;48.420;14.828;2024-03-06T05:38:07;92433.38;;;3.96
81319;BMP280;74078;48.420;14.828;2024-03-06T05:40:36;92422.03;;;3.88
81319;BMP280;74078;48.420;14.828;2024-03-06T05:43:08;92428.56;;;4.06
81319;BMP280;74078;48.420;14.828;2024-03-06T05:45:35;92430.34;;;4.09
81319;BMP280;74078;48.420;14.828;2024-03-06T05:48:01;92431.03;;;4.09
81319;BMP280;74078;48.420;14.828;2024-03-06T05:50:30;92433.59;;;4.06
81319;BMP280;74078;48.420;14.828;2024-03-06T05:52:57;92437.66;;;3.99
81319;BMP280;74078;48.420;14.828;2024-03-06T05:55:24;92445.19;;;3.99
81319;BMP280;74078;48.420;14.828;2024-03-06T05:57:50;92442.13;;;4.12
81319;BMP280;74078;48.420;14.828;2024-03-06T06:00:17;92446.63;;;4.00
81319;BMP280;74078;48.420;14.828;2024-03-06T06:02:44;92445.50;;;4.01
81319;BMP280;74078;48.420;14.828;2024-03-06T06:05:11;92440.16;;;3.99
81319;BMP280;74078;48.420;14.828;2024-03-06T06:07:38;92443.13;;;4.14
81319;BMP280;74078;48.420;14.828;2024-03-06T06:10:04;92448.38;;;4.03
81319;BMP280;74078;48.420;14.828;2024-03-06T06:12:35;92452.19;;;4.12
81319;BMP280;74078;48.420;14.828;2024-03-06T06:15:02;92447.31;;;4.24
81319;BMP280;74078;48.420;14.828;2024-03-06T06:17:28;92459.28;;;4.17
81319;BMP280;74078;48.420;14.828;2024-03-06T06:19:54;92464.91;;;4.24
81319;BMP280;74078;48.420;14.828;2024-03-06T06:22:21;92460.38;;;4.16
81319;BMP280;74078;48.420;14.828;2024-03-06T06:24:50;92465.63;;;4.25
81319;BMP280;74078;48.420;14.828;2024-03-06T06:27:17;92459.28;;;4.17
81319;BMP280;74078;48.420;14.828;2024-03-06T06:29:43;92461.28;;;4.25
81319;BMP280;74078;48.420;14.828;2024-03-06T06:32:10;92461.25;;;4.06
81319;BMP280;74078;48.420;14.828;2024-03-06T06:34:39;92464.13;;;3.84
81319;BMP280;74078;48.420;14.828;2024-03-06T06:37:06;92470.66;;;4.01
81319;BMP280;74078;48.420;14.828;2024-03-06T06:39:32;92471.44;;;3.98
81319;BMP280;74078;48.420;14.828;2024-03-06T06:42:00;92473.41;;;3.87
81319;BMP280;74078;48.420;14.828;2024-03-06T06:44:26;92478.97;;;3.98
81319;BMP280;74078;48.420;14.828;2024-03-06T06:46:53;92480.63;;;3.85
81319;BMP280;74078;48.420;14.828;2024-03-06T06:49:19;92476.13;;;3.96
81319;BMP280;74078;48.420;14.828;2024-03-06T06:51:46;92480.09;;;3.94
81319;BMP280;74078;48.420;14.828;2024-03-06T06:54:14;92479.25;;;4.04
81319;BMP280;74078;48.420;14.828;2024-03-06T06:56:41;92484.66;;;4.02
81319;BMP280;74078;48.420;14.828;2024-03-06T06:59:08;92487.00;;;4.13
81319;BMP280;74078;48.420;14.828;2024-03-06T07:01:34;92482.75;;;4.10
81319;BMP280;74078;48.420;14.828;2024-03-06T07:04:00;92490.34;;;4.07
81319;BMP280;74078;48.420;14.828;2024-03-06T07:06:27;92479.75;;;3.95
81319;BMP280;74078;48.420;14.828;2024-03-06T07:08:54;92483.19;;;3.82
81319;BMP280;74078;48.420;14.828;2024-03-06T07:11:20;92493.09;;;3.92
81319;BMP280;74078;48.420;14.828;2024-03-06T07:13:47;92493.53;;;3.87
81319;BMP280;74078;48.420;14.828;2024-03-06T07:16:13;92487.25;;;3.72
81319;BMP280;74078;48.420;14.828;2024-03-06T07:18:40;92497.28;;;3.99
81319;BMP280;74078;48.420;14.828;2024-03-06T07:21:06;92495.72;;;3.85
81319;BMP280;74078;48.420;14.828;2024-03-06T07:23:33;92501.41;;;3.89
81319;BMP280;74078;48.420;14.828;2024-03-06T07:25:59;92497.16;;;3.83
81319;BMP280;74078;48.420;14.828;2024-03-06T07:28:25;92504.88;;;3.95
81319;BMP280;74078;48.420;14.828;2024-03-06T07:30:52;92510.53;;;4.03
81319;BMP280;74078;48.420;14.828;2024-03-06T07:33:19;92515.59;;;3.99
81319;BMP280;74078;48.420;14.828;2024-03-06T07:35:45;92520.59;;;4.03
81319;BMP280;74078;48.420;14.828;2024-03-06T07:38:12;92519.00;;;3.89
81319;BMP280;74078;48.420;14.828;2024-03-06T07:40:38;92524.28;;;3.95
81319;BMP280;74078;48.420;14.828;2024-03-06T07:43:04;92528.81;;;3.80
81319;BMP280;74078;48.420;14.828;2024-03-06T07:45:32;92525.31;;;3.74
81319;BMP280;74078;48.420;14.828;2024-03-06T07:48:01;92528.38;;;3.62
81319;BMP280;74078;48.420;14.828;2024-03-06T07:50:27;92531.00;;;3.78
81319;BMP280;74078;48.420;14.828;2024-03-06T07:52:54;92530.25;;;3.81
81319;BMP280;74078;48.420;14.828;2024-03-06T07:55:21;92539.56;;;3.84
81319;BMP280;74078;48.420;14.828;2024-03-06T07:57:48;92542.28;;;3.93
81319;BMP280;74078;48.420;14.828;2024-03-06T08:00:14;92544.56;;;3.84
81319;BMP280;74078;48.420;14.828;2024-03-06T08:02:41;92552.88;;;3.81
81319;BMP280;74078;48.420;14.828;2024-03-06T08:05:12;92554.84;;;3.70
81319;BMP280;74078;48.420;14.828;2024-03-06T08:07:41;92549.34;;;3.75
81319;BMP280;74078;48.420;14.828;2024-03-06T08:10:09;92554.59;;;3.88
81319;BMP280;74078;48.420;14.828;2024-03-06T08:12:39;92551.69;;;3.89
81319;BMP280;74078;48.420;14.828;2024-03-06T08:15:06;92552.06;;;3.61
81319;BMP280;74078;48.420;14.828;2024-03-06T08:17:41;92557.34;;;3.70
81319;BMP280;74078;48.420;14.828;2024-03-06T08:20:08;92553.63;;;3.78
81319;BMP280;74078;48.420;14.828;2024-03-06T08:22:36;92558.19;;;3.87
81319;BMP280;74078;48.420;14.828;2024-03-06T08:25:06;92554.00;;;3.77
81319;BMP280;74078;48.420;14.828;2024-03-06T08:27:36;92557.81;;;3.88
81319;BMP280;74078;48.420;14.828;2024-03-06T08:30:06;92552.78;;;3.88
81319;BMP280;74078;48.420;14.828;2024-03-06T08:32:34;92555.25;;;3.92
81319;BMP280;74078;48.420;14.828;2024-03-06T08:35:10;92561.81;;;3.82
81319;BMP280;74078;48.420;14.828;2024-03-06T08:37:37;92562.94;;;3.81
81319;BMP280;74078;48.420;14.828;2024-03-06T08:40:04;92559.41;;;3.75
81319;BMP280;74078;48.420;14.828;2024-03-06T08:42:32;92570.81;;;3.83
81319;BMP280;74078;48.420;14.828;2024-03-06T08:44:59;92568.44;;;4.23
81319;BMP280;74078;48.420;14.828;2024-03-06T08:47:26;92566.06;;;3.89
81319;BMP280;74078;48.420;14.828;2024-03-06T08:49:52;92568.00;;;4.05
81319;BMP280;74078;48.420;14.828;2024-03-06T08:52:19;92574.09;;;3.80
81319;BMP280;74078;48.420;14.828;2024-03-06T08:54:46;92577.44;;;3.97
81319;BMP280;74078;48.420;14.828;2024-03-06T08:57:18;92579.25;;;3.96
81319;BMP280;74078;48.420;14.828;2024-03-06T08:59:47;92570.72;;;3.90
81319;BMP280;74078;48.420;14.828;2024-03-06T09:02:17;92580.69;;;3.94
81319;BMP280;74078;48.420;14.828;2024-03-06T09:04:45;92580.28;;;3.72
81319;BMP280;74078;48.420;14.828;2024-03-06T09:07:12;92576.25;;;3.78
81319;BMP280;74078;48.420;14.828;2024-03-06T09:09:39;92575.41;;;3.88
81319;BMP280;74078;48.420;14.828;2024-03-06T09:12:08;92578.34;;;4.10
81319;BMP280;74078;48.420;14.828;2024-03-06T09:14:42;92579.56;;;4.48
81319;BMP280;74078;48.420;14.828;2024-03-06T09:17:08;92592.13;;;4.72
81319;BMP280;74078;48.420;14.828;2024-03-06T09:19:34;92584.38;;;5.05
81319;BMP280;74078;48.420;14.828;2024-03-06T09:22:01;92585.25;;;5.15
81319;BMP280;74078;48.420;14.828;2024-03-06T09:24:28;92579.88;;;5.33
81319;BMP280;74078;48.420;14.828;2024-03-06T09:26:57;92583.28;;;5.42
81319;BMP280;74078;48.420;14.828;2024-03-06T09:29:24;92587.66;;;5.58
81319;BMP280;74078;48.420;14.828;2024-03-06T09:31:54;92586.19;;;5.41
81319;BMP280;74078;48.420;14.828;2024-03-06T09:34:20;92588.69;;;5.41
81319;BMP280;74078;48.420;14.828;2024-03-06T09:36:47;92597.41;;;5.56
81319;BMP280;74078;48.420;14.828;2024-03-06T09:39:18;92587.31;;;5.40
81319;BMP280;74078;48.420;14.828;2024-03-06T09:41:51;92589.50;;;5.38
81319;BMP280;74078;48.420;14.828;2024-03-06T09:44:17;92592.78;;;5.54
81319;BMP280;74078;48.420;14.828;2024-03-06T09:46:47;92574.47;;;5.70
81319;BMP280;74078;48.420;14.828;2024-03-06T09:49:15;92583.69;;;5.21
81319;BMP280;74078;48.420;14.828;2024-03-06T09:51:43;92588.28;;;5.98
81319;BMP280;74078;48.420;14.828;2024-03-06T09:54:16;92575.72;;;6.10
81319;BMP280;74078;48.420;14.828;2024-03-06T09:56:46;92593.38;;;5.94
81319;BMP280;74078;48.420;14.828;2024-03-06T09:59:13;92586.81;;;6.29
81319;BMP280;74078;48.420;14.828;2024-03-06T10:01:55;92593.63;;;5.84
81319;BMP280;74078;48.420;14.828;2024-03-06T10:04:23;92583.28;;;5.78
81319;BMP280;74078;48.420;14.828;2024-03-06T10:06:50;92583.34;;;5.91
81319;BMP280;74078;48.420;14.828;2024-03-06T10:09:21;92575.72;;;6.10
81319;BMP280;74078;48.420;14.828;2024-03-06T10:11:47;92584.63;;;5.99
81319;BMP280;74078;48.420;14.828;2024-03-06T10:14:14;92578.38;;;5.87
81319;BMP280;74078;48.420;14.828;2024-03-06T10:16:53;92588.41;;;6.23
81319;BMP280;74078;48.420;14.828;2024-03-06T10:19:20;92586.94;;;6.54
81319;BMP280;74078;48.420;14.828;2024-03-06T10:21:47;92583.91;;;6.31
81319;BMP280;74078;48.420;14.828;2024-03-06T10:24:23;92576.69;;;6.61
81319;BMP280;74078;48.420;14.828;2024-03-06T10:26:51;92588.41;;;6.39
81319;BMP280;74078;48.420;14.828;2024-03-06T10:29:20;92589.13;;;6.68
81319;BMP280;74078;48.420;14.828;2024-03-06T10:31:53;92589.09;;;6.56
81319;BMP280;74078;48.420;14.828;2024-03-06T10:34:20;92584.72;;;6.56
81319;BMP280;74078;48.420;14.828;2024-03-06T10:36:53;92593.34;;;6.59
81319;BMP280;74078;48.420;14.828;2024-03-06T10:39:23;92588.56;;;6.77
81319;BMP280;74078;48.420;14.828;2024-03-06T10:41:53;92589.97;;;6.49
81319;BMP280;74078;48.420;14.828;2024-03-06T10:44:26;92596.38;;;6.54
81319;BMP280;74078;48.420;14.828;2024-03-06T10:46:59;92595.03;;;6.33
81319;BMP280;74078;48.420;14.828;2024-03-06T10:49:27;92598.44;;;6.27
81319;BMP280;74078;48.420;14.828;2024-03-06T10:51:54;92596.91;;;6.45
81319;BMP280;74078;48.420;14.828;2024-03-06T10:54:21;92596.38;;;6.38
81319;BMP280;74078;48.420;14.828;2024-03-06T10:56:48;92588.94;;;6.63
81319;BMP280;74078;48.420;14.828;2024-03-06T10:59:15;92594.75;;;6.60
81319;BMP280;74078;48.420;14.828;2024-03-06T16:00:41;92577.34;;;5.69
81319;BMP280;74078;48.420;14.828;2024-03-06T16:03:06;92577.84;;;5.80
81319;BMP280;74078;48.420;14.828;2024-03-06T16:05:32;92581.47;;;5.79
81319;BMP280;74078;48.420;14.828;2024-03-06T16:07:59;92569.47;;;5.67
81319;BMP280;74078;48.420;14.828;2024-03-06T16:10:24;92576.66;;;5.68
81319;BMP280;74078;48.420;14.828;2024-03-06T16:12:50;92579.00;;;5.59
81319;BMP280;74078;48.420;14.828;2024-03-06T16:15:15;92590.31;;;5.71
81319;BMP280;74078;48.420;14.828;2024-03-06T16:17:40;92590.47;;;5.60
81319;BMP280;74078;48.420;14.828;2024-03-06T16:20:06;92590.16;;;5.58
81319;BMP280;74078;48.420;14.828;2024-03-06T16:22:31;92591.84;;;5.64
81319;BMP280;74078;48.420;14.828;2024-03-06T16:24:57;92590.41;;;5.63
81319;BMP280;74078;48.420;14.828;2024-03-06T16:27:22;92592.91;;;5.67
81319;BMP280;74078;48.420;14.828;2024-03-06T16:29:47;92594.13;;;5.75
81319;BMP280;74078;48.420;14.828;2024-03-06T16:32:13;92600.66;;;5.73
81319;BMP280;74078;48.420;14.828;2024-03-06T16:34:38;92603.28;;;5.69
81319;BMP280;74078;48.420;14.828;2024-03-06T16:37:04;92602.72;;;5.61
81319;BMP280;74078;48.420;14.828;2024-03-06T16:39:30;92600.59;;;5.76
81319;BMP280;74078;48.420;14.828;2024-03-06T16:41:55;92607.38;;;5.63
81319;BMP280;74078;48.420;14.828;2024-03-06T16:44:21;92604.81;;;5.47
81319;BMP280;74078;48.420;14.828;2024-03-06T16:46:46;92610.50;;;5.51
81319;BMP280;74078;48.420;14.828;2024-03-06T16:49:11;92610.88;;;5.49
81319;BMP280;74078;48.420;14.828;2024-03-06T16:51:37;92610.66;;;5.60
81319;BMP280;74078;48.420;14.828;2024-03-06T16:54:03;92607.09;;;5.57
81319;BMP280;74078;48.420;14.828;2024-03-06T16:56:28;92610.81;;;5.53
81319;BMP280;74078;48.420;14.828;2024-03-06T16:58:54;92606.50;;;5.34
81319;BMP280;74078;48.420;14.828;2024-03-06T17:01:19;92614.34;;;5.39
81319;BMP280;74078;48.420;14.828;2024-03-06T17:03:44;92617.06;;;5.45
81319;BMP280;74078;48.420;14.828;2024-03-06T17:06:10;92622.69;;;5.36
81319;BMP280;74078;48.420;14.828;2024-03-06T17:08:35;92614.72;;;5.38
81319;BMP280;74078;48.420;14.828;2024-03-06T17:11:01;92618.44;;;5.30
81319;BMP280;74078;48.420;14.828;2024-03-06T17:13:26;92620.19;;;5.33
81319;BMP280;74078;48.420;14.828;2024-03-06T17:15:51;92620.72;;;5.24
81319;BMP280;74078;48.420;14.828;2024-03-06T17:18:17;92623.47;;;5.30
81319;BMP280;74078;48.420;14.828;2024-03-06T17:20:42;92626.75;;;5.07
81319;BMP280;74078;48.420;14.828;2024-03-06T17:23:07;92624.34;;;5.03
81319;BMP280;74078;48.420;14.828;2024-03-06T17:25:33;92631.03;;;5.10
81319;BMP280;74078;48.420;14.828;2024-03-06T17:27:59;92635.91;;;5.21
81319;BMP280;74078;48.420;14.828;2024-03-06T17:30:24;92629.56;;;5.13
81319;BMP280;74078;48.420;14.828;2024-03-06T17:32:52;92633.31;;;5.04
81319;BMP280;74078;48.420;14.828;2024-03-06T17:35:17;92634.75;;;5.05
81319;BMP280;74078;48.420;14.828;2024-03-06T17:37:42;92641.44;;;5.12
81319;BMP280;74078;48.420;14.828;2024-03-06T17:40:08;92637.56;;;5.07
81319;BMP280;74078;48.420;14.828;2024-03-06T17:42:35;92642.09;;;4.96
81319;BMP280;74078;48.420;14.828;2024-03-06T17:45:01;92647.78;;;5.00
81319;BMP280;74078;48.420;14.828;2024-03-06T17:47:26;92647.84;;;4.97
81319;BMP280;74078;48.420;14.828;2024-03-06T17:49:51;92647.34;;;5.05
81319;BMP280;74078;48.420;14.828;2024-03-06T17:52:17;92646.72;;;4.78
81319;BMP280;74078;48.420;14.828;2024-03-06T17:54:42;92650.56;;;4.83
81319;BMP280;74078;48.420;14.828;2024-03-06T17:57:07;92661.59;;;4.69
81319;BMP280;74078;48.420;14.828;2024-03-06T17:59:33;92662.25;;;4.73
81319;BMP280;74078;48.420;14.828;2024-03-06T18:01:58;92662.91;;;4.77
81319;BMP280;74078;48.420;14.828;2024-03-06T18:04:24;92660.59;;;4.86
81319;BMP280;74078;48.420;14.828;2024-03-06T18:06:51;92653.44;;;4.85
81319;BMP280;74078;48.420;14.828;2024-03-06T18:09:16;92664.28;;;4.82
81319;BMP280;74078;48.420;14.828;2024-03-06T18:11:43;92656.50;;;4.73
81319;BMP280;74078;48.420;14.828;2024-03-06T18:14:09;92667.84;;;4.84
81319;BMP280;74078;48.420;14.828;2024-03-06T18:16:34;92664.44;;;4.71
81319;BMP280;74078;48.420;14.828;2024-03-06T18:19:02;92665.91;;;4.69
81319;BMP280;74078;48.420;14.828;2024-03-06T18:21:27;92665.59;;;4.67
81319;BMP280;74078;48.420;14.828;2024-03-06T18:23:52;92662.56;;;4.75
81319;BMP280;74078;48.420;14.828;2024-03-06T18:26:21;92674.19;;;4.69
81319;BMP280;74078;48.420;14.828;2024-03-06T18:28:46;92671.16;;;4.78
81319;BMP280;74078;48.420;14.828;2024-03-06T18:31:11;92672.97;;;4.77
81319;BMP280;74078;48.420;14.828;2024-03-06T18:33:36;92674.06;;;4.76
81319;BMP280;74078;48.420;14.828;2024-03-06T18:36:02;92668.31;;;4.76
81319;BMP280;74078;48.420;14.828;2024-03-06T18:38:28;92670.78;;;4.79
81319;BMP280;74078;48.420;14.828;2024-03-06T18:40:53;92672.00;;;4.71
81319;BMP280;74078;48.420;14.828;2024-03-06T18:43:18;92677.19;;;4.61
81319;BMP280;74078;48.420;14.828;2024-03-06T18:45:44;92675.78;;;4.56
81319;BMP280;74078;48.420;14.828;2024-03-06T18:48:09;92676.81;;;4.62
81319;BMP280;74078;48.420;14.828;2024-03-06T18:50:35;92674.16;;;4.46
81319;BMP280;74078;48.420;14.828;2024-03-06T18:53:00;92676.22;;;4.28
81319;BMP280;74078;48.420;14.828;2024-03-06T18:55:26;92681.09;;;4.38
81319;BMP280;74078;48.420;14.828;2024-03-06T18:57:51;92683.19;;;4.43
81319;BMP280;74078;48.420;14.828;2024-03-06T19:00:16;92685.53;;;4.31
81319;BMP280;74078;48.420;14.828;2024-03-06T19:02:42;92693.06;;;4.04
81319;BMP280;74078;48.420;14.828;2024-03-06T19:05:07;92698.34;;;3.79